sensor_id;sensor_type;location;lat;lon;timestamp;P1;durP1;ratioP1;P2;durP2;ratioP2
67074;SDS011;53990;50.334;18.640;2022-08-03T00:01:06;23.10;;;20.10;;
67074;SDS011;53990;50.334;18.640;2022-08-03T00:03:33;27.30;;;21.40;;
67074;SDS011;53990;50.334;18.640;2022-08-03T00:06:01;25.80;;;22.60;;
67074;SDS011;53990;50.334;18.640;2022-08-03T00:08:28;27.60;;;23.10;;
67074;SDS011;53990;50.334;18.640;2022-08-03T00:10:55;25.70;;;22.70;;
67074;SDS011;53990;50.334;18.640;2022-08-03T00:13:22;30.30;;;23.10;;
67074;SDS011;53990;50.334;18.640;2022-08-03T00:15:50;26.80;;;23.30;;
67074;SDS011;53990;50.334;18.640;2022-08-03T00:18:17;25.20;;;22.50;;
67074;SDS011;53990;50.334;18.640;2022-08-03T00:20:45;26.00;;;22.30;;
67074;SDS011;53990;50.334;18.640;2022-08-03T00:23:12;26.60;;;23.10;;
67074;SDS011;53990;50.334;18.640;2022-08-03T00:25:39;27.10;;;22.60;;
67074;SDS011;53990;50.334;18.640;2022-08-03T00:28:06;27.90;;;24.20;;
67074;SDS011;53990;50.334;18.640;2022-08-03T00:30:34;25.50;;;22.90;;
67074;SDS011;53990;50.334;18.640;2022-08-03T00:33:01;29.20;;;24.50;;
67074;SDS011;53990;50.334;18.640;2022-08-03T00:35:29;27.90;;;24.80;;
67074;SDS011;53990;50.334;18.640;2022-08-03T00:37:59;26.60;;;23.80;;
67074;SDS011;53990;50.334;18.640;2022-08-03T00:40:27;28.30;;;24.70;;
67074;SDS011;53990;50.334;18.640;2022-08-03T00:43:02;27.30;;;24.30;;
67074;SDS011;53990;50.334;18.640;2022-08-03T00:45:33;26.50;;;23.70;;
67074;SDS011;53990;50.334;18.640;2022-08-03T00:48:01;29.80;;;23.10;;
67074;SDS011;53990;50.334;18.640;2022-08-03T00:50:31;27.00;;;23.90;;
67074;SDS011;53990;50.334;18.640;2022-08-03T00:53:02;27.40;;;23.90;;
67074;SDS011;53990;50.334;18.640;2022-08-03T00:55:30;26.40;;;23.20;;
67074;SDS011;53990;50.334;18.640;2022-08-03T00:57:58;26.80;;;23.80;;
67074;SDS011;53990;50.334;18.640;2022-08-03T01:00:27;26.10;;;23.30;;
67074;SDS011;53990;50.334;18.640;2022-08-03T01:02:54;28.20;;;24.30;;
67074;SDS011;53990;50.334;18.640;2022-08-03T01:05:21;29.30;;;24.30;;
67074;SDS011;53990;50.334;18.640;2022-08-03T01:08:19;28.00;;;23.90;;
67074;SDS011;53990;50.334;18.640;2022-08-03T01:16:22;27.20;;;23.90;;
67074;SDS011;53990;50.334;18.640;2022-08-03T01:30:29;28.90;;;23.60;;
67074;SDS011;53990;50.334;18.640;2022-08-03T01:33:05;26.90;;;23.10;;
67074;SDS011;53990;50.334;18.640;2022-08-03T01:35:40;26.60;;;23.60;;
67074;SDS011;53990;50.334;18.640;2022-08-03T01:38:14;27.90;;;23.60;;
67074;SDS011;53990;50.334;18.640;2022-08-03T01:40:45;27.80;;;23.70;;
67074;SDS011;53990;50.334;18.640;2022-08-03T01:43:15;27.50;;;24.50;;
67074;SDS011;53990;50.334;18.640;2022-08-03T01:45:44;27.70;;;24.40;;
67074;SDS011;53990;50.334;18.640;2022-08-03T01:48:14;26.60;;;23.70;;
67074;SDS011;53990;50.334;18.640;2022-08-03T01:50:44;30.30;;;24.70;;
67074;SDS011;53990;50.334;18.640;2022-08-03T01:53:14;29.70;;;25.30;;
67074;SDS011;53990;50.334;18.640;2022-08-03T01:55:47;28.70;;;25.50;;
67074;SDS011;53990;50.334;18.640;2022-08-03T01:58:16;28.40;;;24.60;;
67074;SDS011;53990;50.334;18.640;2022-08-03T02:00:45;30.00;;;24.20;;
67074;SDS011;53990;50.334;18.640;2022-08-03T02:03:15;28.80;;;24.70;;
67074;SDS011;53990;50.334;18.640;2022-08-03T02:05:44;28.10;;;25.10;;
67074;SDS011;53990;50.334;18.640;2022-08-03T02:08:14;30.70;;;26.00;;
67074;SDS011;53990;50.334;18.640;2022-08-03T02:10:44;28.80;;;24.90;;
67074;SDS011;53990;50.334;18.640;2022-08-03T02:13:13;27.90;;;24.90;;
67074;SDS011;53990;50.334;18.640;2022-08-03T02:15:41;29.10;;;25.20;;
67074;SDS011;53990;50.334;18.640;2022-08-03T02:18:10;30.60;;;25.40;;
67074;SDS011;53990;50.334;18.640;2022-08-03T02:20:38;29.00;;;25.50;;
67074;SDS011;53990;50.334;18.640;2022-08-03T02:23:07;31.30;;;26.10;;
67074;SDS011;53990;50.334;18.640;2022-08-03T02:25:41;28.60;;;25.50;;
67074;SDS011;53990;50.334;18.640;2022-08-03T02:28:18;32.00;;;27.50;;
67074;SDS011;53990;50.334;18.640;2022-08-03T02:30:54;32.20;;;27.50;;
67074;SDS011;53990;50.334;18.640;2022-08-03T02:33:29;32.20;;;27.90;;
67074;SDS011;53990;50.334;18.640;2022-08-03T02:35:58;34.50;;;27.70;;
67074;SDS011;53990;50.334;18.640;2022-08-03T02:38:30;33.80;;;27.90;;
67074;SDS011;53990;50.334;18.640;2022-08-03T02:40:59;34.00;;;27.50;;
67074;SDS011;53990;50.334;18.640;2022-08-03T02:43:28;32.70;;;27.00;;
67074;SDS011;53990;50.334;18.640;2022-08-03T02:45:56;30.80;;;27.10;;
67074;SDS011;53990;50.334;18.640;2022-08-03T02:48:26;31.00;;;27.30;;
67074;SDS011;53990;50.334;18.640;2022-08-03T02:50:57;29.20;;;26.00;;
67074;SDS011;53990;50.334;18.640;2022-08-03T02:53:25;28.80;;;24.70;;
67074;SDS011;53990;50.334;18.640;2022-08-03T02:55:54;27.60;;;24.00;;
67074;SDS011;53990;50.334;18.640;2022-08-03T02:58:23;28.30;;;24.60;;
67074;SDS011;53990;50.334;18.640;2022-08-03T03:00:51;26.90;;;24.00;;
67074;SDS011;53990;50.334;18.640;2022-08-03T03:03:20;28.70;;;24.60;;
67074;SDS011;53990;50.334;18.640;2022-08-03T03:05:49;34.00;;;25.70;;
67074;SDS011;53990;50.334;18.640;2022-08-03T03:08:18;35.30;;;29.10;;
67074;SDS011;53990;50.334;18.640;2022-08-03T03:10:46;33.90;;;30.00;;
67074;SDS011;53990;50.334;18.640;2022-08-03T03:13:14;35.50;;;29.60;;
67074;SDS011;53990;50.334;18.640;2022-08-03T03:15:43;39.80;;;31.60;;
67074;SDS011;53990;50.334;18.640;2022-08-03T03:18:11;35.40;;;30.30;;
67074;SDS011;53990;50.334;18.640;2022-08-03T03:20:40;40.40;;;30.70;;
67074;SDS011;53990;50.334;18.640;2022-08-03T03:23:08;34.70;;;29.60;;
67074;SDS011;53990;50.334;18.640;2022-08-03T03:25:36;33.00;;;28.70;;
67074;SDS011;53990;50.334;18.640;2022-08-03T03:28:04;32.10;;;28.10;;
67074;SDS011;53990;50.334;18.640;2022-08-03T03:30:32;31.50;;;26.80;;
67074;SDS011;53990;50.334;18.640;2022-08-03T03:32:59;34.10;;;29.50;;
67074;SDS011;53990;50.334;18.640;2022-08-03T03:35:29;35.30;;;30.80;;
67074;SDS011;53990;50.334;18.640;2022-08-03T03:37:56;45.40;;;34.90;;
67074;SDS011;53990;50.334;18.640;2022-08-03T03:40:23;49.90;;;40.20;;
67074;SDS011;53990;50.334;18.640;2022-08-03T03:42:51;47.10;;;38.20;;
67074;SDS011;53990;50.334;18.640;2022-08-03T03:45:19;46.90;;;35.40;;
67074;SDS011;53990;50.334;18.640;2022-08-03T03:47:47;39.00;;;32.50;;
67074;SDS011;53990;50.334;18.640;2022-08-03T03:50:17;40.90;;;34.60;;
67074;SDS011;53990;50.334;18.640;2022-08-03T03:52:44;49.80;;;39.60;;
67074;SDS011;53990;50.334;18.640;2022-08-03T03:55:15;54.90;;;44.30;;
67074;SDS011;53990;50.334;18.640;2022-08-03T03:57:42;49.10;;;39.30;;
67074;SDS011;53990;50.334;18.640;2022-08-03T04:00:15;46.60;;;38.00;;
67074;SDS011;53990;50.334;18.640;2022-08-03T04:02:45;47.60;;;39.90;;
67074;SDS011;53990;50.334;18.640;2022-08-03T04:05:13;49.90;;;40.70;;
67074;SDS011;53990;50.334;18.640;2022-08-03T04:08:03;47.70;;;38.20;;
67074;SDS011;53990;50.334;18.640;2022-08-03T04:11:11;48.90;;;40.40;;
67074;SDS011;53990;50.334;18.640;2022-08-03T04:14:10;50.40;;;40.60;;
67074;SDS011;53990;50.334;18.640;2022-08-03T04:16:41;53.70;;;43.40;;
67074;SDS011;53990;50.334;18.640;2022-08-03T04:22:04;54.70;;;44.30;;
67074;SDS011;53990;50.334;18.640;2022-08-03T04:24:58;55.20;;;43.60;;
67074;SDS011;53990;50.334;18.640;2022-08-03T04:27:29;53.00;;;40.80;;
67074;SDS011;53990;50.334;18.640;2022-08-03T04:29:57;49.80;;;40.40;;
67074;SDS011;53990;50.334;18.640;2022-08-03T04:32:27;52.80;;;40.70;;
67074;SDS011;53990;50.334;18.640;2022-08-03T04:34:55;51.50;;;40.80;;
67074;SDS011;53990;50.334;18.640;2022-08-03T04:37:34;51.60;;;41.40;;
67074;SDS011;53990;50.334;18.640;2022-08-03T04:40:06;50.50;;;40.90;;
67074;SDS011;53990;50.334;18.640;2022-08-03T04:42:36;52.60;;;41.40;;
67074;SDS011;53990;50.334;18.640;2022-08-03T04:45:04;54.60;;;42.90;;
67074;SDS011;53990;50.334;18.640;2022-08-03T04:47:32;53.40;;;42.30;;
67074;SDS011;53990;50.334;18.640;2022-08-03T04:50:01;46.70;;;39.20;;
67074;SDS011;53990;50.334;18.640;2022-08-03T04:52:29;53.40;;;41.10;;
67074;SDS011;53990;50.334;18.640;2022-08-03T04:54:56;52.00;;;40.90;;
67074;SDS011;53990;50.334;18.640;2022-08-03T04:57:24;51.90;;;40.50;;
67074;SDS011;53990;50.334;18.640;2022-08-03T04:59:52;51.10;;;39.50;;
67074;SDS011;53990;50.334;18.640;2022-08-03T05:02:23;49.60;;;40.20;;
67074;SDS011;53990;50.334;18.640;2022-08-03T05:04:51;49.70;;;41.60;;
67074;SDS011;53990;50.334;18.640;2022-08-03T05:07:18;49.50;;;40.30;;
67074;SDS011;53990;50.334;18.640;2022-08-03T05:09:45;50.30;;;39.00;;
67074;SDS011;53990;50.334;18.640;2022-08-03T05:12:12;49.10;;;40.70;;
67074;SDS011;53990;50.334;18.640;2022-08-03T05:14:39;51.60;;;39.60;;
67074;SDS011;53990;50.334;18.640;2022-08-03T05:17:08;50.40;;;39.30;;
67074;SDS011;53990;50.334;18.640;2022-08-03T05:19:35;53.30;;;40.60;;
67074;SDS011;53990;50.334;18.640;2022-08-03T05:22:02;47.80;;;38.50;;
67074;SDS011;53990;50.334;18.640;2022-08-03T05:24:30;51.40;;;38.50;;
67074;SDS011;53990;50.334;18.640;2022-08-03T05:26:57;51.10;;;39.60;;
67074;SDS011;53990;50.334;18.640;2022-08-03T05:29:24;50.40;;;39.00;;
67074;SDS011;53990;50.334;18.640;2022-08-03T05:31:51;47.70;;;38.00;;
67074;SDS011;53990;50.334;18.640;2022-08-03T05:34:18;45.10;;;36.80;;
67074;SDS011;53990;50.334;18.640;2022-08-03T05:36:45;49.10;;;37.20;;
67074;SDS011;53990;50.334;18.640;2022-08-03T05:39:13;47.20;;;36.80;;
67074;SDS011;53990;50.334;18.640;2022-08-03T05:41:40;45.60;;;35.20;;
67074;SDS011;53990;50.334;18.640;2022-08-03T05:44:07;44.80;;;34.70;;
67074;SDS011;53990;50.334;18.640;2022-08-03T05:46:34;45.40;;;33.90;;
67074;SDS011;53990;50.334;18.640;2022-08-03T05:49:02;40.80;;;31.40;;
67074;SDS011;53990;50.334;18.640;2022-08-03T05:51:29;46.00;;;33.40;;
67074;SDS011;53990;50.334;18.640;2022-08-03T05:53:56;48.30;;;35.20;;
67074;SDS011;53990;50.334;18.640;2022-08-03T05:56:23;53.10;;;36.50;;
67074;SDS011;53990;50.334;18.640;2022-08-03T05:58:53;49.90;;;34.60;;
67074;SDS011;53990;50.334;18.640;2022-08-03T06:01:21;47.00;;;34.70;;
67074;SDS011;53990;50.334;18.640;2022-08-03T06:03:49;46.10;;;33.70;;
67074;SDS011;53990;50.334;18.640;2022-08-03T06:06:17;50.20;;;35.40;;
67074;SDS011;53990;50.334;18.640;2022-08-03T06:08:44;51.30;;;35.60;;
67074;SDS011;53990;50.334;18.640;2022-08-03T06:11:12;47.50;;;32.20;;
67074;SDS011;53990;50.334;18.640;2022-08-03T06:13:39;41.50;;;30.80;;
67074;SDS011;53990;50.334;18.640;2022-08-03T06:16:07;43.70;;;30.80;;
67074;SDS011;53990;50.334;18.640;2022-08-03T06:18:35;46.30;;;31.40;;
67074;SDS011;53990;50.334;18.640;2022-08-03T06:21:03;38.30;;;30.90;;
67074;SDS011;53990;50.334;18.640;2022-08-03T06:23:30;41.90;;;30.70;;
67074;SDS011;53990;50.334;18.640;2022-08-03T06:25:57;38.30;;;27.80;;
67074;SDS011;53990;50.334;18.640;2022-08-03T06:28:25;36.10;;;26.30;;
67074;SDS011;53990;50.334;18.640;2022-08-03T06:30:52;39.80;;;28.70;;
67074;SDS011;53990;50.334;18.640;2022-08-03T06:33:19;39.30;;;25.80;;
67074;SDS011;53990;50.334;18.640;2022-08-03T06:35:46;39.60;;;25.00;;
67074;SDS011;53990;50.334;18.640;2022-08-03T06:38:13;35.40;;;26.30;;
67074;SDS011;53990;50.334;18.640;2022-08-03T06:40:40;39.50;;;28.00;;
67074;SDS011;53990;50.334;18.640;2022-08-03T06:43:08;34.10;;;23.70;;
67074;SDS011;53990;50.334;18.640;2022-08-03T06:45:35;39.90;;;26.80;;
67074;SDS011;53990;50.334;18.640;2022-08-03T06:48:05;34.30;;;23.60;;
67074;SDS011;53990;50.334;18.640;2022-08-03T06:50:34;30.60;;;23.70;;
67074;SDS011;53990;50.334;18.640;2022-08-03T06:53:03;34.50;;;25.60;;
67074;SDS011;53990;50.334;18.640;2022-08-03T06:55:30;38.30;;;26.70;;
67074;SDS011;53990;50.334;18.640;2022-08-03T06:57:58;34.70;;;24.40;;
67074;SDS011;53990;50.334;18.640;2022-08-03T07:00:25;31.10;;;22.90;;
67074;SDS011;53990;50.334;18.640;2022-08-03T07:02:54;33.00;;;24.90;;
67074;SDS011;53990;50.334;18.640;2022-08-03T07:05:21;34.50;;;25.30;;
67074;SDS011;53990;50.334;18.640;2022-08-03T07:07:49;29.50;;;22.20;;
67074;SDS011;53990;50.334;18.640;2022-08-03T07:10:16;29.60;;;21.90;;
67074;SDS011;53990;50.334;18.640;2022-08-03T07:12:43;32.80;;;23.10;;
67074;SDS011;53990;50.334;18.640;2022-08-03T07:15:10;33.50;;;23.30;;
67074;SDS011;53990;50.334;18.640;2022-08-03T07:17:38;33.10;;;23.70;;
67074;SDS011;53990;50.334;18.640;2022-08-03T07:20:07;29.90;;;20.90;;
67074;SDS011;53990;50.334;18.640;2022-08-03T07:22:35;28.10;;;22.90;;
67074;SDS011;53990;50.334;18.640;2022-08-03T07:25:03;25.80;;;21.90;;
67074;SDS011;53990;50.334;18.640;2022-08-03T07:27:31;30.50;;;24.90;;
67074;SDS011;53990;50.334;18.640;2022-08-03T07:30:06;28.90;;;21.70;;
67074;SDS011;53990;50.334;18.640;2022-08-03T07:32:36;28.40;;;22.30;;
67074;SDS011;53990;50.334;18.640;2022-08-03T07:35:05;28.10;;;21.10;;
67074;SDS011;53990;50.334;18.640;2022-08-03T07:37:32;25.50;;;21.00;;
67074;SDS011;53990;50.334;18.640;2022-08-03T07:40:01;25.70;;;21.00;;
67074;SDS011;53990;50.334;18.640;2022-08-03T07:42:29;25.00;;;19.60;;
67074;SDS011;53990;50.334;18.640;2022-08-03T07:44:57;23.70;;;18.70;;
67074;SDS011;53990;50.334;18.640;2022-08-03T07:47:27;21.40;;;17.90;;
67074;SDS011;53990;50.334;18.640;2022-08-03T07:49:54;26.20;;;20.20;;
67074;SDS011;53990;50.334;18.640;2022-08-03T07:52:25;21.00;;;17.80;;
67074;SDS011;53990;50.334;18.640;2022-08-03T07:55:11;23.10;;;17.90;;
67074;SDS011;53990;50.334;18.640;2022-08-03T07:57:38;18.70;;;14.70;;
67074;SDS011;53990;50.334;18.640;2022-08-03T08:00:20;20.40;;;16.40;;
67074;SDS011;53990;50.334;18.640;2022-08-03T08:02:47;23.50;;;16.70;;
67074;SDS011;53990;50.334;18.640;2022-08-03T08:05:14;16.00;;;13.10;;
67074;SDS011;53990;50.334;18.640;2022-08-03T08:07:41;19.70;;;13.90;;
67074;SDS011;53990;50.334;18.640;2022-08-03T08:10:09;22.50;;;16.30;;
67074;SDS011;53990;50.334;18.640;2022-08-03T08:12:37;25.60;;;14.80;;
67074;SDS011;53990;50.334;18.640;2022-08-03T08:15:06;20.40;;;14.70;;
67074;SDS011;53990;50.334;18.640;2022-08-03T08:17:48;25.00;;;17.00;;
67074;SDS011;53990;50.334;18.640;2022-08-03T08:20:20;22.80;;;16.50;;
67074;SDS011;53990;50.334;18.640;2022-08-03T08:22:48;21.20;;;14.10;;
67074;SDS011;53990;50.334;18.640;2022-08-03T08:25:16;20.30;;;14.00;;
67074;SDS011;53990;50.334;18.640;2022-08-03T08:27:47;18.40;;;13.70;;
67074;SDS011;53990;50.334;18.640;2022-08-03T08:30:18;20.40;;;14.10;;
67074;SDS011;53990;50.334;18.640;2022-08-03T08:32:46;18.40;;;14.60;;
67074;SDS011;53990;50.334;18.640;2022-08-03T08:35:14;19.30;;;14.30;;
67074;SDS011;53990;50.334;18.640;2022-08-03T08:37:42;17.50;;;13.60;;
67074;SDS011;53990;50.334;18.640;2022-08-03T08:40:10;14.10;;;11.10;;
67074;SDS011;53990;50.334;18.640;2022-08-03T08:42:40;13.80;;;11.60;;
67074;SDS011;53990;50.334;18.640;2022-08-03T08:45:09;15.10;;;12.70;;
67074;SDS011;53990;50.334;18.640;2022-08-03T08:47:39;11.70;;;10.40;;
67074;SDS011;53990;50.334;18.640;2022-08-03T08:50:07;11.70;;;9.40;;
67074;SDS011;53990;50.334;18.640;2022-08-03T08:52:35;12.50;;;9.30;;
67074;SDS011;53990;50.334;18.640;2022-08-03T08:55:05;9.00;;;7.80;;
67074;SDS011;53990;50.334;18.640;2022-08-03T08:57:35;11.40;;;8.00;;
67074;SDS011;53990;50.334;18.640;2022-08-03T09:00:06;8.90;;;7.40;;
67074;SDS011;53990;50.334;18.640;2022-08-03T09:02:44;9.50;;;7.60;;
67074;SDS011;53990;50.334;18.640;2022-08-03T09:05:14;9.00;;;7.60;;
67074;SDS011;53990;50.334;18.640;2022-08-03T09:07:43;8.20;;;6.90;;
67074;SDS011;53990;50.334;18.640;2022-08-03T09:10:12;8.80;;;5.90;;
67074;SDS011;53990;50.334;18.640;2022-08-03T09:12:45;6.80;;;5.50;;
67074;SDS011;53990;50.334;18.640;2022-08-03T09:17:51;8.50;;;6.70;;
67074;SDS011;53990;50.334;18.640;2022-08-03T09:20:21;7.50;;;6.60;;
67074;SDS011;53990;50.334;18.640;2022-08-03T09:25:37;6.30;;;5.70;;
67074;SDS011;53990;50.334;18.640;2022-08-03T09:28:09;10.80;;;6.90;;
67074;SDS011;53990;50.334;18.640;2022-08-03T09:30:43;9.90;;;7.00;;
67074;SDS011;53990;50.334;18.640;2022-08-03T09:33:12;6.00;;;5.20;;
67074;SDS011;53990;50.334;18.640;2022-08-03T09:35:45;9.30;;;5.50;;
67074;SDS011;53990;50.334;18.640;2022-08-03T09:38:18;8.60;;;5.80;;
67074;SDS011;53990;50.334;18.640;2022-08-03T09:40:49;5.50;;;5.00;;
67074;SDS011;53990;50.334;18.640;2022-08-03T09:43:17;15.70;;;12.20;;
67074;SDS011;53990;50.334;18.640;2022-08-03T09:45:44;8.20;;;5.80;;
67074;SDS011;53990;50.334;18.640;2022-08-03T09:48:26;8.70;;;6.00;;
67074;SDS011;53990;50.334;18.640;2022-08-03T09:50:58;6.50;;;5.00;;
67074;SDS011;53990;50.334;18.640;2022-08-03T09:53:26;7.10;;;5.20;;
67074;SDS011;53990;50.334;18.640;2022-08-03T09:56:01;5.30;;;4.80;;
67074;SDS011;53990;50.334;18.640;2022-08-03T09:58:30;28.30;;;23.60;;
67074;SDS011;53990;50.334;18.640;2022-08-03T10:01:02;12.90;;;10.80;;
67074;SDS011;53990;50.334;18.640;2022-08-03T10:03:33;8.10;;;6.10;;
67074;SDS011;53990;50.334;18.640;2022-08-03T10:06:14;5.80;;;4.90;;
67074;SDS011;53990;50.334;18.640;2022-08-03T10:08:42;6.00;;;5.40;;
67074;SDS011;53990;50.334;18.640;2022-08-03T10:11:09;6.00;;;5.40;;
67074;SDS011;53990;50.334;18.640;2022-08-03T10:13:37;7.30;;;5.10;;
67074;SDS011;53990;50.334;18.640;2022-08-03T10:16:04;5.70;;;4.80;;
67074;SDS011;53990;50.334;18.640;2022-08-03T10:18:32;6.50;;;5.20;;
67074;SDS011;53990;50.334;18.640;2022-08-03T10:21:04;6.50;;;4.70;;
67074;SDS011;53990;50.334;18.640;2022-08-03T10:23:34;5.50;;;5.00;;
67074;SDS011;53990;50.334;18.640;2022-08-03T10:26:03;7.10;;;5.20;;
67074;SDS011;53990;50.334;18.640;2022-08-03T10:28:35;5.90;;;4.80;;
67074;SDS011;53990;50.334;18.640;2022-08-03T10:31:04;7.70;;;5.30;;
67074;SDS011;53990;50.334;18.640;2022-08-03T10:33:36;6.20;;;4.70;;
67074;SDS011;53990;50.334;18.640;2022-08-03T10:36:08;6.70;;;4.80;;
67074;SDS011;53990;50.334;18.640;2022-08-03T10:38:47;6.10;;;4.90;;
67074;SDS011;53990;50.334;18.640;2022-08-03T10:41:25;4.80;;;3.40;;
67074;SDS011;53990;50.334;18.640;2022-08-03T10:44:12;5.00;;;4.00;;
67074;SDS011;53990;50.334;18.640;2022-08-03T10:46:42;5.10;;;4.60;;
67074;SDS011;53990;50.334;18.640;2022-08-03T10:49:14;5.00;;;4.50;;
67074;SDS011;53990;50.334;18.640;2022-08-03T10:51:47;4.50;;;4.00;;
67074;SDS011;53990;50.334;18.640;2022-08-03T10:57:03;5.80;;;3.70;;
67074;SDS011;53990;50.334;18.640;2022-08-03T11:02:16;4.30;;;3.30;;
67074;SDS011;53990;50.334;18.640;2022-08-03T11:04:43;3.70;;;3.00;;
67074;SDS011;53990;50.334;18.640;2022-08-03T11:07:19;6.10;;;2.60;;
67074;SDS011;53990;50.334;18.640;2022-08-03T11:09:50;3.60;;;2.60;;
67074;SDS011;53990;50.334;18.640;2022-08-03T11:12:32;2.90;;;2.60;;
67074;SDS011;53990;50.334;18.640;2022-08-03T11:15:02;4.50;;;2.90;;
67074;SDS011;53990;50.334;18.640;2022-08-03T11:17:31;5.30;;;3.00;;
67074;SDS011;53990;50.334;18.640;2022-08-03T11:19:59;5.20;;;2.80;;
67074;SDS011;53990;50.334;18.640;2022-08-03T11:22:47;3.60;;;2.60;;
67074;SDS011;53990;50.334;18.640;2022-08-03T11:25:14;2.90;;;2.40;;
67074;SDS011;53990;50.334;18.640;2022-08-03T11:27:42;3.60;;;2.70;;
67074;SDS011;53990;50.334;18.640;2022-08-03T11:30:21;3.00;;;2.60;;
67074;SDS011;53990;50.334;18.640;2022-08-03T11:32:58;3.40;;;2.90;;
67074;SDS011;53990;50.334;18.640;2022-08-03T11:35:27;3.70;;;2.90;;
67074;SDS011;53990;50.334;18.640;2022-08-03T11:40:48;3.40;;;2.90;;
67074;SDS011;53990;50.334;18.640;2022-08-03T11:46:06;3.30;;;2.90;;
67074;SDS011;53990;50.334;18.640;2022-08-03T11:48:36;4.40;;;3.00;;
67074;SDS011;53990;50.334;18.640;2022-08-03T11:51:06;5.80;;;3.30;;
67074;SDS011;53990;50.334;18.640;2022-08-03T11:53:34;5.40;;;3.50;;
67074;SDS011;53990;50.334;18.640;2022-08-03T11:56:01;3.80;;;3.10;;
67074;SDS011;53990;50.334;18.640;2022-08-03T11:58:29;4.50;;;3.30;;
67074;SDS011;53990;50.334;18.640;2022-08-03T12:01:05;4.80;;;3.20;;
67074;SDS011;53990;50.334;18.640;2022-08-03T12:03:38;5.10;;;3.50;;
67074;SDS011;53990;50.334;18.640;2022-08-03T12:06:09;7.60;;;3.80;;
67074;SDS011;53990;50.334;18.640;2022-08-03T12:08:38;5.20;;;3.90;;
67074;SDS011;53990;50.334;18.640;2022-08-03T12:11:07;3.90;;;3.50;;
67074;SDS011;53990;50.334;18.640;2022-08-03T12:13:47;5.00;;;3.60;;
67074;SDS011;53990;50.334;18.640;2022-08-03T12:16:20;4.70;;;3.70;;
67074;SDS011;53990;50.334;18.640;2022-08-03T12:19:03;4.60;;;4.10;;
67074;SDS011;53990;50.334;18.640;2022-08-03T12:21:33;4.90;;;4.20;;
67074;SDS011;53990;50.334;18.640;2022-08-03T12:24:04;5.40;;;4.20;;
67074;SDS011;53990;50.334;18.640;2022-08-03T12:26:49;6.10;;;4.60;;
67074;SDS011;53990;50.334;18.640;2022-08-03T12:29:18;5.00;;;4.10;;
67074;SDS011;53990;50.334;18.640;2022-08-03T12:31:45;4.90;;;3.80;;
67074;SDS011;53990;50.334;18.640;2022-08-03T12:34:13;5.20;;;4.30;;
67074;SDS011;53990;50.334;18.640;2022-08-03T12:36:54;4.70;;;4.10;;
67074;SDS011;53990;50.334;18.640;2022-08-03T12:39:24;5.70;;;4.10;;
67074;SDS011;53990;50.334;18.640;2022-08-03T12:41:53;5.40;;;4.40;;
67074;SDS011;53990;50.334;18.640;2022-08-03T12:44:32;4.80;;;4.10;;
67074;SDS011;53990;50.334;18.640;2022-08-03T12:47:02;5.20;;;4.50;;
67074;SDS011;53990;50.334;18.640;2022-08-03T12:49:44;6.20;;;4.50;;
67074;SDS011;53990;50.334;18.640;2022-08-03T12:52:11;5.60;;;4.10;;
67074;SDS011;53990;50.334;18.640;2022-08-03T12:54:38;4.00;;;3.50;;
67074;SDS011;53990;50.334;18.640;2022-08-03T12:57:10;6.50;;;4.20;;
67074;SDS011;53990;50.334;18.640;2022-08-03T12:59:40;4.60;;;3.70;;
67074;SDS011;53990;50.334;18.640;2022-08-03T13:02:17;4.30;;;3.90;;
67074;SDS011;53990;50.334;18.640;2022-08-03T13:04:45;4.70;;;4.20;;
67074;SDS011;53990;50.334;18.640;2022-08-03T13:07:14;4.10;;;3.60;;
67074;SDS011;53990;50.334;18.640;2022-08-03T13:09:50;5.30;;;4.20;;
67074;SDS011;53990;50.334;18.640;2022-08-03T13:12:26;6.10;;;4.20;;
67074;SDS011;53990;50.334;18.640;2022-08-03T13:14:56;5.70;;;4.30;;
67074;SDS011;53990;50.334;18.640;2022-08-03T13:17:24;7.20;;;5.00;;
67074;SDS011;53990;50.334;18.640;2022-08-03T13:19:52;9.00;;;6.00;;
67074;SDS011;53990;50.334;18.640;2022-08-03T13:22:24;5.60;;;5.10;;
67074;SDS011;53990;50.334;18.640;2022-08-03T13:24:54;6.30;;;5.10;;
67074;SDS011;53990;50.334;18.640;2022-08-03T13:29:54;5.30;;;4.80;;
67074;SDS011;53990;50.334;18.640;2022-08-03T13:32:22;6.30;;;5.10;;
67074;SDS011;53990;50.334;18.640;2022-08-03T13:34:49;5.20;;;4.60;;
67074;SDS011;53990;50.334;18.640;2022-08-03T13:37:16;4.70;;;4.30;;
67074;SDS011;53990;50.334;18.640;2022-08-03T13:39:44;6.80;;;5.00;;
67074;SDS011;53990;50.334;18.640;2022-08-03T13:42:11;6.20;;;4.80;;
67074;SDS011;53990;50.334;18.640;2022-08-03T13:44:38;6.00;;;4.30;;
67074;SDS011;53990;50.334;18.640;2022-08-03T13:47:06;6.40;;;4.70;;
67074;SDS011;53990;50.334;18.640;2022-08-03T13:49:33;6.90;;;5.00;;
67074;SDS011;53990;50.334;18.640;2022-08-03T13:52:00;5.60;;;5.00;;
67074;SDS011;53990;50.334;18.640;2022-08-03T13:54:27;7.00;;;5.00;;
67074;SDS011;53990;50.334;18.640;2022-08-03T13:56:55;5.80;;;4.90;;
67074;SDS011;53990;50.334;18.640;2022-08-03T13:59:23;7.00;;;5.10;;
67074;SDS011;53990;50.334;18.640;2022-08-03T14:01:52;5.30;;;4.80;;
67074;SDS011;53990;50.334;18.640;2022-08-03T14:04:20;5.50;;;5.00;;
67074;SDS011;53990;50.334;18.640;2022-08-03T14:06:47;6.50;;;5.60;;
67074;SDS011;53990;50.334;18.640;2022-08-03T14:09:15;7.00;;;4.90;;
67074;SDS011;53990;50.334;18.640;2022-08-03T14:11:50;5.60;;;4.90;;
67074;SDS011;53990;50.334;18.640;2022-08-03T14:14:17;6.10;;;4.90;;
67074;SDS011;53990;50.334;18.640;2022-08-03T14:16:44;6.00;;;5.10;;
67074;SDS011;53990;50.334;18.640;2022-08-03T14:19:12;6.70;;;5.10;;
67074;SDS011;53990;50.334;18.640;2022-08-03T14:21:39;5.80;;;5.20;;
67074;SDS011;53990;50.334;18.640;2022-08-03T14:24:07;6.40;;;5.10;;
67074;SDS011;53990;50.334;18.640;2022-08-03T14:26:34;5.60;;;5.10;;
67074;SDS011;53990;50.334;18.640;2022-08-03T14:29:01;6.10;;;5.20;;
67074;SDS011;53990;50.334;18.640;2022-08-03T14:31:28;6.40;;;5.20;;
67074;SDS011;53990;50.334;18.640;2022-08-03T14:33:55;6.30;;;5.20;;
67074;SDS011;53990;50.334;18.640;2022-08-03T14:36:23;5.30;;;4.60;;
67074;SDS011;53990;50.334;18.640;2022-08-03T14:38:53;5.40;;;4.60;;
67074;SDS011;53990;50.334;18.640;2022-08-03T14:41:20;6.60;;;5.10;;
67074;SDS011;53990;50.334;18.640;2022-08-03T14:43:48;5.20;;;4.70;;
67074;SDS011;53990;50.334;18.640;2022-08-03T14:46:15;7.70;;;5.30;;
67074;SDS011;53990;50.334;18.640;2022-08-03T14:48:42;7.20;;;5.30;;
67074;SDS011;53990;50.334;18.640;2022-08-03T14:51:09;5.80;;;4.80;;
67074;SDS011;53990;50.334;18.640;2022-08-03T14:53:36;6.40;;;4.90;;
67074;SDS011;53990;50.334;18.640;2022-08-03T14:56:04;13.50;;;5.40;;
67074;SDS011;53990;50.334;18.640;2022-08-03T14:58:31;7.40;;;5.40;;
67074;SDS011;53990;50.334;18.640;2022-08-03T15:00:58;12.00;;;5.50;;
67074;SDS011;53990;50.334;18.640;2022-08-03T15:03:28;5.90;;;5.30;;
67074;SDS011;53990;50.334;18.640;2022-08-03T15:05:56;5.10;;;4.60;;
67074;SDS011;53990;50.334;18.640;2022-08-03T15:08:25;6.00;;;4.50;;
67074;SDS011;53990;50.334;18.640;2022-08-03T15:10:53;6.80;;;5.00;;
67074;SDS011;53990;50.334;18.640;2022-08-03T15:13:21;5.80;;;5.10;;